Time;durP1;ratioP1;P1;durP2;ratioP2;P2;SDS_P1;SDS_P2;PMS_P1;PMS_P2;Temp;Humidity;BMP_temperature;BMP_pressure;BME280_temperature;BME280_humidity;BME280_pressure;Samples;Min_cycle;Max_cycle;Signal;HPM_P1;HPM_P2
2022/11/02 00:01:00;;;;;;;17.00;15.10;;;;;;;11.06;100.00;99348.22;106514;1286;60739;-74
2022/11/02 00:03:32;;;;;;;21.90;15.80;;;;;;;11.03;100.00;99350.58;105922;1287;72986;-74
2022/11/02 00:05:58;;;;;;;21.80;16.50;;;;;;;11.00;100.00;99353.41;106507;1286;58970;-73
2022/11/02 00:08:25;;;;;;;19.30;15.90;;;;;;;10.98;100.00;99351.23;106521;1278;58886;-74
2022/11/02 00:10:52;;;;;;;19.90;17.10;;;;;;;10.95;100.00;99352.47;106515;1281;65985;-75
2022/11/02 00:13:19;;;;;;;23.80;16.80;;;;;;;10.94;100.00;99353.44;106498;1282;60762;-75
2022/11/02 00:15:46;;;;;;;20.50;16.30;;;;;;;10.93;100.00;99355.12;106491;1269;64832;-74
2022/11/02 00:18:13;;;;;;;18.70;15.50;;;;;;;10.92;100.00;99354.46;106484;1286;59237;-74
2022/11/02 00:20:42;;;;;;;21.40;16.20;;;;;;;10.91;100.00;99355.08;106315;1285;58731;-74
2022/11/02 00:23:11;;;;;;;21.10;16.70;;;;;;;10.89;100.00;99356.23;106488;1286;66990;-74
2022/11/02 00:25:40;;;;;;;22.60;17.20;;;;;;;10.88;100.00;99361.98;106507;1284;59696;-74
2022/11/02 00:28:07;;;;;;;20.30;17.00;;;;;;;10.87;100.00;99363.99;106500;1278;64985;-74
2022/11/02 00:30:34;;;;;;;18.60;15.60;;;;;;;10.86;100.00;99365.65;106477;1277;58906;-74
2022/11/02 00:33:00;;;;;;;19.70;15.60;;;;;;;10.87;100.00;99367.76;106535;1275;58929;-74
2022/11/02 00:35:27;;;;;;;19.70;17.10;;;;;;;10.86;100.00;99364.63;106128;1288;66034;-74
2022/11/02 00:37:54;;;;;;;20.80;16.40;;;;;;;10.85;100.00;99368.20;106139;1284;67917;-73
2022/11/02 00:40:20;;;;;;;19.50;17.10;;;;;;;10.84;100.00;99372.76;106494;1286;64809;-73
2022/11/02 00:42:47;;;;;;;25.50;17.40;;;;;;;10.82;100.00;99377.13;106504;1281;58901;-74
2022/11/02 00:45:13;;;;;;;24.20;19.00;;;;;;;10.81;100.00;99372.05;106517;1286;59112;-75
2022/11/02 00:47:40;;;;;;;29.30;20.40;;;;;;;10.79;100.00;99368.27;106125;1289;65988;-73
2022/11/02 00:50:07;;;;;;;27.80;21.10;;;;;;;10.75;100.00;99366.69;106525;1276;59992;-74
2022/11/02 00:52:34;;;;;;;28.40;22.60;;;;;;;10.71;100.00;99367.10;106092;1289;65422;-74
2022/11/02 00:55:01;;;;;;;33.20;24.20;;;;;;;10.67;100.00;99365.23;106489;1286;58978;-74
2022/11/02 00:57:27;;;;;;;25.90;21.70;;;;;;;10.63;100.00;99364.62;106528;1281;58822;-74
2022/11/02 00:59:54;;;;;;;25.90;20.10;;;;;;;10.59;100.00;99366.31;106532;1281;74105;-74
2022/11/02 01:02:20;;;;;;;23.20;18.80;;;;;;;10.54;100.00;99367.10;106492;1286;61051;-75
2022/11/02 01:04:47;;;;;;;22.70;18.60;;;;;;;10.50;100.00;99368.42;106493;1285;65045;-73
2022/11/02 01:07:13;;;;;;;24.20;19.00;;;;;;;10.46;100.00;99373.09;106495;1282;58926;-74
2022/11/02 01:09:40;;;;;;;26.70;19.30;;;;;;;10.43;100.00;99376.48;106118;1289;59155;-74
2022/11/02 01:12:08;;;;;;;22.20;17.90;;;;;;;10.40;100.00;99376.48;106520;1286;66014;-74
2022/11/02 01:14:35;;;;;;;23.70;20.80;;;;;;;10.38;100.00;99370.73;106492;1278;61402;-74
2022/11/02 01:17:09;;;;;;;25.70;20.60;;;;;;;10.36;100.00;99372.80;106106;1288;65057;-74
2022/11/02 01:19:35;;;;;;;24.20;19.30;;;;;;;10.35;100.00;99380.16;106493;1278;58972;-74
2022/11/02 01:22:02;;;;;;;24.50;19.40;;;;;;;10.33;100.00;99380.46;106493;1286;58890;-74
2022/11/02 01:24:29;;;;;;;22.90;19.00;;;;;;;10.32;100.00;99379.42;106120;1288;67005;-74
2022/11/02 01:26:55;;;;;;;23.80;19.80;;;;;;;10.30;100.00;99381.70;106503;1281;59875;-73
2022/11/02 01:29:22;;;;;;;28.30;19.80;;;;;;;10.28;100.00;99380.02;106492;1286;64072;-74
2022/11/02 01:31:48;;;;;;;24.20;20.30;;;;;;;10.26;100.00;99378.73;106492;1289;59103;-74
2022/11/02 01:34:15;;;;;;;25.00;20.20;;;;;;;10.23;100.00;99382.23;106517;1281;59009;-75
2022/11/02 01:36:44;;;;;;;23.30;20.40;;;;;;;10.22;100.00;99379.83;106518;1286;66813;-74
2022/11/02 01:39:11;;;;;;;24.40;20.20;;;;;;;10.20;100.00;99379.23;106509;1284;61070;-74
2022/11/02 01:41:37;;;;;;;23.00;18.00;;;;;;;10.18;100.00;99380.21;106484;1282;64199;-73
2022/11/02 01:44:05;;;;;;;24.40;18.80;;;;;;;10.20;100.00;99383.71;106500;1282;58970;-73
2022/11/02 01:46:40;;;;;;;26.00;19.60;;;;;;;10.21;100.00;99386.45;106357;1276;58814;-74
2022/11/02 01:49:15;;;;;;;25.00;19.50;;;;;;;10.24;100.00;99385.02;106515;1286;67004;-73
2022/11/02 01:52:13;;;;;;;26.40;19.20;;;;;;;10.28;100.00;99381.10;106489;1279;61009;-73
2022/11/02 01:54:46;;;;;;;23.90;19.00;;;;;;;10.32;100.00;99380.70;105756;1292;65059;-74
2022/11/02 01:57:18;;;;;;;24.70;19.60;;;;;;;10.34;100.00;99379.50;105759;1286;59002;-74
2022/11/02 01:59:57;;;;;;;26.60;21.50;;;;;;;10.37;100.00;99372.95;105755;1292;60648;-74
2022/11/02 02:02:26;;;;;;;25.20;19.90;;;;;;;10.38;100.00;99369.69;105564;1297;65955;-74
2022/11/02 02:04:58;;;;;;;26.80;20.20;;;;;;;10.38;100.00;99366.67;105742;1285;61148;-74
2022/11/02 02:07:27;;;;;;;26.70;20.00;;;;;;;10.39;100.00;99366.80;105735;1293;62621;-74
2022/11/02 02:09:54;;;;;;;24.30;19.80;;;;;;;10.39;100.00;99367.16;105706;1284;59041;-74
2022/11/02 02:12:23;;;;;;;27.60;21.40;;;;;;;10.38;100.00;99368.66;105715;1292;58977;-74
2022/11/02 02:14:50;;;;;;;27.80;21.60;;;;;;;10.35;100.00;99371.98;105719;1294;66966;-74
2022/11/02 02:17:38;;;;;;;25.20;19.80;;;;;;;10.33;100.00;99373.49;105726;1292;61280;-74
2022/11/02 02:20:23;;;;;;;26.90;20.60;;;;;;;10.31;100.00;99379.83;105575;1297;64009;-74
2022/11/02 02:23:06;;;;;;;24.60;19.40;;;;;;;10.29;100.00;99384.22;105737;1290;58959;-74
2022/11/02 02:26:17;;;;;;;23.30;19.00;;;;;;;10.27;100.00;99380.23;105721;1292;58912;-74
2022/11/02 02:29:00;;;;;;;23.70;20.70;;;;;;;10.26;100.00;99381.72;105439;1297;66966;-74
2022/11/02 02:31:32;;;;;;;28.20;20.20;;;;;;;10.23;100.00;99382.77;105667;1297;61040;-74
2022/11/02 02:34:20;;;;;;;27.20;20.70;;;;;;;10.20;100.00;99383.65;105715;1293;63849;-74
2022/11/02 02:37:00;;;;;;;24.10;19.70;;;;;;;10.16;100.00;99377.52;105881;1291;59341;-74
2022/11/02 02:39:26;;;;;;;27.00;21.20;;;;;;;10.12;100.00;99374.89;105867;1292;58916;-74
2022/11/02 02:42:03;;;;;;;27.00;20.60;;;;;;;10.09;100.00;99379.36;105880;1290;59577;-73
2022/11/02 02:44:34;;;;;;;26.50;20.20;;;;;;;10.06;100.00;99379.32;105876;1291;60715;-74
2022/11/02 02:47:02;;;;;;;25.30;19.90;;;;;;;10.05;100.00;99380.81;105883;1291;63758;-74
2022/11/02 02:49:37;;;;;;;29.50;20.50;;;;;;;10.04;100.00;99384.41;105857;1290;59121;-74
2022/11/02 02:52:05;;;;;;;27.90;20.90;;;;;;;10.03;100.00;99385.39;105893;1291;59050;-75
2022/11/02 02:54:39;;;;;;;27.80;21.50;;;;;;;10.02;100.00;99390.97;105911;1291;66898;-74
2022/11/02 02:57:09;;;;;;;30.20;21.70;;;;;;;10.02;100.00;99391.48;105912;1291;60115;-74
2022/11/02 02:59:44;;;;;;;26.90;21.50;;;;;;;10.01;100.00;99387.31;105890;1290;64052;-74
2022/11/02 03:02:22;;;;;;;26.40;21.20;;;;;;;9.99;100.00;99381.36;105720;1287;58962;-73
2022/11/02 03:04:48;;;;;;;26.00;20.60;;;;;;;9.97;100.00;99385.56;106192;1292;58865;-73
2022/11/02 03:07:24;;;;;;;29.20;21.50;;;;;;;9.97;100.00;99386.60;106535;1285;66971;-72
2022/11/02 03:10:04;;;;;;;29.40;21.70;;;;;;;9.97;100.00;99389.25;106262;1289;60950;-74
2022/11/02 03:12:52;;;;;;;29.30;22.80;;;;;;;9.97;100.00;99390.16;106484;1286;65061;-74
2022/11/02 03:15:25;;;;;;;33.40;22.80;;;;;;;9.96;100.00;99389.86;106503;1286;58854;-74
2022/11/02 03:18:07;;;;;;;27.30;22.20;;;;;;;9.96;100.00;99390.40;106533;1281;59136;-74
2022/11/02 03:20:57;;;;;;;35.30;24.90;;;;;;;9.96;100.00;99392.73;106537;1286;66816;-74
2022/11/02 03:23:33;;;;;;;34.60;23.40;;;;;;;9.95;100.00;99395.45;106475;1284;60059;-74
2022/11/02 03:26:17;;;;;;;31.40;23.20;;;;;;;9.94;100.00;99396.04;106487;1282;64075;-74
2022/11/02 03:28:55;;;;;;;32.60;23.20;;;;;;;9.92;100.00;99394.70;106502;1286;58975;-74
2022/11/02 03:31:43;;;;;;;31.00;23.20;;;;;;;9.91;100.00;99399.23;106515;1281;58816;-74
2022/11/02 03:34:21;;;;;;;31.70;24.30;;;;;;;9.90;100.00;99406.39;106516;1282;65721;-74
2022/11/02 03:36:59;;;;;;;37.60;26.50;;;;;;;9.87;100.00;99407.80;106482;1286;59968;-74
2022/11/02 03:39:35;;;;;;;34.50;23.80;;;;;;;9.83;100.00;99402.14;106508;1281;65069;-73
2022/11/02 03:42:03;;;;;;;33.50;24.50;;;;;;;9.80;100.00;99403.05;106504;1282;58930;-74
2022/11/02 03:44:34;;;;;;;36.10;25.30;;;;;;;9.76;100.00;99408.06;106563;1284;58922;-74
2022/11/02 03:47:02;;;;;;;34.40;24.30;;;;;;;9.73;100.00;99411.41;106090;1287;75178;-74
2022/11/02 03:49:30;;;;;;;35.20;24.80;;;;;;;9.70;100.00;99406.26;106502;1285;60947;-74
2022/11/02 03:52:02;;;;;;;34.90;25.20;;;;;;;9.67;100.00;99408.36;106491;1284;65003;-73
2022/11/02 03:54:52;;;;;;;39.30;26.10;;;;;;;9.65;100.00;99407.98;106498;1286;58921;-73
2022/11/02 03:57:26;;;;;;;37.60;26.10;;;;;;;9.61;100.00;99407.45;106147;1293;59079;-74
2022/11/02 03:59:52;;;;;;;36.50;25.80;;;;;;;9.59;100.00;99413.80;106505;1275;65988;-74
2022/11/02 04:02:19;;;;;;;35.10;25.40;;;;;;;9.56;100.00;99412.54;106139;1281;60054;-74
2022/11/02 04:04:51;;;;;;;35.60;26.60;;;;;;;9.55;100.00;99414.59;106491;1284;64997;-74
2022/11/02 04:07:23;;;;;;;32.00;23.40;;;;;;;9.53;100.00;99418.41;106480;1289;58983;-74
2022/11/02 04:09:50;;;;;;;36.00;26.50;;;;;;;9.53;100.00;99421.25;106512;1291;58885;-74
2022/11/02 04:15:01;;;;;;;41.30;27.10;;;;;;;9.53;100.00;99418.60;106291;1284;60673;-74
2022/11/02 04:20:13;;;;;;;37.60;26.00;;;;;;;9.53;100.00;99418.56;106490;1284;58856;-73
2022/11/02 04:25:26;;;;;;;43.60;27.00;;;;;;;9.57;100.00;99414.45;106537;1278;67004;-74
2022/11/02 04:27:52;;;;;;;38.60;27.20;;;;;;;9.58;100.00;99415.98;106493;1281;60984;-74
2022/11/02 04:30:21;;;;;;;39.50;28.10;;;;;;;9.58;100.00;99419.70;106545;1282;63853;-75
2022/11/02 04:35:36;;;;;;;43.70;28.80;;;;;;;9.60;100.00;99419.96;106545;1281;58751;-74
2022/11/02 04:41:40;;;;;;;38.50;27.50;;;;;;;9.66;100.00;99419.45;106515;1285;61065;-74
2022/11/02 04:43:34;;;;;;;43.20;28.00;;;;;;;9.72;100.00;99421.95;106499;1287;65119;-75
2022/11/02 04:46:00;;;;;;;41.80;27.20;;;;;;;9.77;100.00;99428.05;106496;1286;59316;-73
2022/11/02 04:48:27;;;;;;;41.70;29.70;;;;;;;9.82;100.00;99429.39;106499;1285;58930;-74
2022/11/02 04:50:53;;;;;;;42.00;28.80;;;;;;;9.86;100.00;99423.83;106520;1284;66020;-73
2022/11/02 04:53:20;;;;;;;42.20;28.60;;;;;;;9.90;100.00;99426.41;106499;1286;60663;-74
2022/11/02 04:55:46;;;;;;;38.60;29.00;;;;;;;9.94;100.00;99426.91;106523;1286;58835;-74
2022/11/02 04:58:13;;;;;;;44.90;30.50;;;;;;;9.96;100.00;99428.58;106533;1284;58928;-73
2022/11/02 05:00:39;;;;;;;51.60;35.80;;;;;;;9.96;100.00;99428.58;106508;1286;58918;-73
2022/11/02 05:03:07;;;;;;;49.90;34.90;;;;;;;9.96;100.00;99430.02;106498;1282;67009;-73
2022/11/02 05:05:33;;;;;;;54.30;37.40;;;;;;;9.94;100.00;99430.30;106527;1286;60960;-74
2022/11/02 05:08:00;;;;;;;43.30;32.00;;;;;;;9.92;100.00;99431.63;106525;1278;65042;-73
2022/11/02 05:10:27;;;;;;;49.20;34.20;;;;;;;9.92;100.00;99427.72;106500;1286;58977;-73
2022/11/02 05:12:57;;;;;;;47.00;32.80;;;;;;;9.93;100.00;99433.04;106521;1281;58771;-73
2022/11/02 05:15:24;;;;;;;43.80;31.20;;;;;;;9.91;100.00;99438.06;106519;1281;66046;-74
2022/11/02 05:17:51;;;;;;;43.90;31.50;;;;;;;9.89;100.00;99436.05;106151;1295;60228;-73
2022/11/02 05:20:18;;;;;;;42.70;29.80;;;;;;;9.88;100.00;99436.13;106481;1285;64012;-74
2022/11/02 05:22:44;;;;;;;44.70;31.20;;;;;;;9.88;100.00;99439.84;106480;1285;58927;-73
2022/11/02 05:25:11;;;;;;;43.50;28.80;;;;;;;9.88;100.00;99444.09;106534;1282;58785;-73
2022/11/02 05:27:38;;;;;;;47.30;31.00;;;;;;;9.91;100.00;99445.90;106518;1281;66789;-73
2022/11/02 05:30:05;;;;;;;48.90;30.60;;;;;;;9.93;100.00;99447.74;106491;1282;60737;-74
2022/11/02 05:32:32;;;;;;;54.50;37.60;;;;;;;9.95;100.00;99449.22;106498;1286;65008;-73
2022/11/02 05:34:58;;;;;;;58.90;42.90;;;;;;;9.98;100.00;99450.48;106506;1275;59291;-74
2022/11/02 05:37:25;;;;;;;51.20;37.50;;;;;;;10.00;100.00;99452.64;106533;1289;58825;-75
2022/11/02 05:39:51;;;;;;;51.00;34.70;;;;;;;10.02;100.00;99453.61;106536;1285;66777;-74
2022/11/02 05:42:18;;;;;;;49.80;34.10;;;;;;;10.04;100.00;99455.95;106489;1285;59916;-73
2022/11/02 05:44:44;;;;;;;53.20;34.70;;;;;;;10.07;100.00;99458.30;106480;1281;64007;-73
2022/11/02 05:47:11;;;;;;;42.80;31.50;;;;;;;10.08;100.00;99455.73;106474;1286;58966;-73
2022/11/02 05:49:37;;;;;;;46.80;33.50;;;;;;;10.10;100.00;99455.96;106508;1286;58810;-74
2022/11/02 05:52:04;;;;;;;44.60;32.10;;;;;;;10.13;100.00;99455.29;106490;1285;66045;-72
2022/11/02 05:54:31;;;;;;;57.80;38.70;;;;;;;10.16;100.00;99454.78;106497;1285;59944;-74
2022/11/02 05:56:57;;;;;;;67.40;44.50;;;;;;;10.18;100.00;99459.08;106504;1289;64963;-73
2022/11/02 05:59:24;;;;;;;64.10;42.90;;;;;;;10.20;100.00;99456.84;106493;1281;59001;-73
2022/11/02 06:01:50;;;;;;;57.30;38.70;;;;;;;10.21;100.00;99456.60;106494;1282;58851;-73
2022/11/02 06:04:17;;;;;;;51.60;37.50;;;;;;;10.22;100.00;99459.73;106538;1285;67029;-73
2022/11/02 06:06:44;;;;;;;49.40;33.70;;;;;;;10.24;100.00;99454.83;106528;1278;59954;-73
2022/11/02 06:09:11;;;;;;;47.50;32.30;;;;;;;10.25;100.00;99459.20;106478;1286;65010;-73
2022/11/02 06:11:38;;;;;;;46.10;31.10;;;;;;;10.27;100.00;99458.05;106516;1285;58948;-74
2022/11/02 06:14:06;;;;;;;42.80;31.00;;;;;;;10.28;100.00;99462.97;106511;1286;59468;-74
2022/11/02 06:16:32;;;;;;;41.10;29.40;;;;;;;10.30;100.00;99462.51;106489;1286;66996;-74
2022/11/02 06:18:59;;;;;;;40.90;29.60;;;;;;;10.32;100.00;99462.02;106481;1284;59006;-74
2022/11/02 06:21:25;;;;;;;37.30;27.60;;;;;;;10.31;100.00;99462.08;106493;1286;64979;-74
2022/11/02 06:23:52;;;;;;;38.30;27.10;;;;;;;10.30;100.00;99458.97;106527;1283;58926;-74
2022/11/02 06:26:19;;;;;;;39.60;29.00;;;;;;;10.27;100.00;99463.20;106531;1281;58895;-74
2022/11/02 06:28:45;;;;;;;36.10;27.20;;;;;;;10.25;100.00;99460.81;106533;1289;67027;-74
2022/11/02 06:31:12;;;;;;;38.40;27.40;;;;;;;10.24;100.00;99465.46;106143;1293;60693;-74
2022/11/02 06:33:39;;;;;;;39.40;27.30;;;;;;;10.26;100.00;99465.73;106118;1295;65018;-74
2022/11/02 06:36:05;;;;;;;35.60;26.90;;;;;;;10.28;100.00;99469.34;106478;1284;58806;-75
2022/11/02 06:38:32;;;;;;;43.10;29.80;;;;;;;10.31;100.00;99471.14;106519;1291;58728;-74
2022/11/02 06:41:02;;;;;;;39.80;30.80;;;;;;;10.36;100.00;99471.02;106546;1285;66881;-74
2022/11/02 06:43:29;;;;;;;36.50;28.30;;;;;;;10.41;100.00;99475.35;106516;1284;60013;-74
2022/11/02 06:45:56;;;;;;;40.90;29.90;;;;;;;10.45;100.00;99473.89;106258;1285;64088;-72
2022/11/02 06:48:25;;;;;;;38.50;27.60;;;;;;;10.49;100.00;99470.94;106117;1293;58938;-74
2022/11/02 06:50:52;;;;;;;38.00;26.40;;;;;;;10.55;100.00;99467.08;106121;1293;58941;-74
2022/11/02 06:53:18;;;;;;;35.00;25.00;;;;;;;10.58;100.00;99466.71;106527;1285;66056;-74
2022/11/02 06:55:53;;;;;;;35.10;26.70;;;;;;;10.60;100.00;99466.09;106502;1284;60993;-74
2022/11/02 06:58:22;;;;;;;36.50;25.60;;;;;;;10.63;100.00;99463.20;106482;1289;63739;-74
2022/11/02 07:00:48;;;;;;;35.30;26.70;;;;;;;10.69;100.00;99459.34;106485;1286;59272;-75
2022/11/02 07:03:15;;;;;;;36.30;26.70;;;;;;;10.73;100.00;99461.38;106531;1281;58839;-74
2022/11/02 07:05:49;;;;;;;40.50;28.00;;;;;;;10.78;100.00;99468.91;106521;1286;65707;-75
2022/11/02 07:08:16;;;;;;;36.00;27.90;;;;;;;10.83;100.00;99464.85;106498;1286;61019;-73
2022/11/02 07:10:43;;;;;;;38.70;26.20;;;;;;;10.89;100.00;99465.19;106469;1288;64999;-73
2022/11/02 07:13:10;;;;;;;34.00;24.30;;;;;;;10.94;100.00;99472.39;106498;1293;58880;-74
2022/11/02 07:15:36;;;;;;;34.30;24.70;;;;;;;11.02;100.00;99474.57;106515;1281;58829;-74
2022/11/02 07:18:05;;;;;;;32.30;26.00;;;;;;;11.14;100.00;99473.85;106500;1282;66028;-73
2022/11/02 07:20:32;;;;;;;34.00;24.70;;;;;;;11.19;100.00;99473.48;106515;1281;60124;-73
2022/11/02 07:23:00;;;;;;;31.80;24.50;;;;;;;11.21;100.00;99471.80;106107;1289;63828;-73
2022/11/02 07:25:31;;;;;;;30.70;22.10;;;;;;;11.23;100.00;99474.73;106511;1285;58945;-72
2022/11/02 07:27:59;;;;;;;33.70;23.30;;;;;;;11.28;100.00;99477.92;106306;1286;58887;-73
2022/11/02 07:30:27;;;;;;;29.60;21.20;;;;;;;11.37;100.00;99477.39;106507;1285;67032;-73
2022/11/02 07:32:54;;;;;;;27.00;20.30;;;;;;;11.45;100.00;99478.13;106481;1289;60105;-73
2022/11/02 07:35:21;;;;;;;26.20;20.50;;;;;;;11.52;100.00;99475.04;106478;1286;64964;-75
2022/11/02 07:37:56;;;;;;;24.40;19.60;;;;;;;11.56;100.00;99474.09;106107;1289;58973;-73
2022/11/02 07:40:22;;;;;;;28.50;21.80;;;;;;;11.58;100.00;99472.86;106497;1281;60216;-73
2022/11/02 07:42:49;;;;;;;26.40;20.00;;;;;;;11.61;100.00;99472.31;106515;1281;66807;-74
2022/11/02 07:45:16;;;;;;;28.20;20.50;;;;;;;11.66;100.00;99475.72;106502;1285;60720;-73
2022/11/02 07:47:44;;;;;;;27.20;20.20;;;;;;;11.74;100.00;99476.65;106513;1286;64865;-73
2022/11/02 07:50:12;;;;;;;29.90;19.60;;;;;;;11.82;100.00;99473.96;106488;1286;58931;-73
2022/11/02 07:52:45;;;;;;;27.80;19.90;;;;;;;11.92;100.00;99475.70;106518;1278;58995;-73
2022/11/02 07:55:13;;;;;;;29.40;19.70;;;;;;;12.02;100.00;99477.73;106534;1282;65831;-76
2022/11/02 07:57:42;;;;;;;24.20;19.30;;;;;;;12.10;100.00;99472.39;106497;1286;60814;-74
2022/11/02 08:00:13;;;;;;;25.40;20.10;;;;;;;12.17;100.00;99477.82;106500;1286;64973;-74
2022/11/02 08:02:39;;;;;;;25.10;19.80;;;;;;;12.24;100.00;99472.20;106532;1281;58985;-74
2022/11/02 08:05:06;;;;;;;26.30;19.00;;;;;;;12.33;100.00;99467.48;106510;1286;58790;-73
2022/11/02 08:07:32;;;;;;;25.10;18.80;;;;;;;12.42;100.00;99466.69;106513;1282;66789;-73
2022/11/02 08:09:59;;;;;;;24.60;18.70;;;;;;;12.51;100.00;99469.49;106490;1281;60972;-74
2022/11/02 08:12:27;;;;;;;21.70;17.70;;;;;;;12.58;100.00;99469.56;106108;1286;64978;-74
2022/11/02 08:14:53;;;;;;;25.10;19.40;;;;;;;12.65;100.00;99471.06;106512;1284;58808;-74
2022/11/02 08:17:20;;;;;;;22.10;18.50;;;;;;;12.72;100.00;99468.05;106112;1293;58893;-74
2022/11/02 08:19:47;;;;;;;25.20;17.80;;;;;;;12.80;100.00;99465.92;106544;1286;66913;-74
2022/11/02 08:22:13;;;;;;;24.00;17.20;;;;;;;12.87;100.00;99463.11;106498;1282;59680;-74
2022/11/02 08:24:40;;;;;;;23.80;17.00;;;;;;;12.97;100.00;99458.69;106490;1284;64805;-74
2022/11/02 08:27:07;;;;;;;21.90;17.00;;;;;;;13.05;100.00;99457.59;106480;1292;58887;-75
2022/11/02 08:29:35;;;;;;;23.00;17.60;;;;;;;13.10;100.00;99455.46;106384;1286;58945;-75
2022/11/02 08:32:02;;;;;;;19.30;16.00;;;;;;;13.16;100.00;99456.61;106537;1281;66934;-74
2022/11/02 08:34:29;;;;;;;18.40;15.80;;;;;;;13.24;100.00;99457.68;106513;1285;59662;-74
2022/11/02 08:36:56;;;;;;;20.80;15.90;;;;;;;13.34;100.00;99452.73;106524;1281;64867;-74
2022/11/02 08:39:23;;;;;;;18.90;14.80;;;;;;;13.44;100.00;99451.81;106504;1278;58870;-75
2022/11/02 08:41:49;;;;;;;20.80;15.70;;;;;;;13.52;100.00;99448.94;106509;1286;58993;-75
2022/11/02 08:44:16;;;;;;;16.90;14.30;;;;;;;13.58;100.00;99450.65;106144;1285;66871;-75
2022/11/02 08:46:42;;;;;;;19.60;15.10;;;;;;;13.64;100.00;99449.17;106505;1282;59814;-74
2022/11/02 08:49:09;;;;;;;16.20;14.50;;;;;;;13.70;100.00;99449.27;106516;1286;63786;-74
2022/11/02 08:51:35;;;;;;;16.30;14.10;;;;;;;13.75;100.00;99452.44;106505;1286;59142;-74
2022/11/02 08:54:02;;;;;;;18.30;14.00;;;;;;;13.85;100.00;99454.08;106526;1286;58798;-74
2022/11/02 08:56:29;;;;;;;18.70;14.70;;;;;;;13.95;100.00;99453.52;106117;1288;66764;-74
2022/11/02 08:58:55;;;;;;;17.60;14.10;;;;;;;14.01;100.00;99450.16;106519;1284;61028;-74
2022/11/02 09:01:22;;;;;;;16.80;13.90;;;;;;;14.05;100.00;99451.86;106123;1285;63697;-74
2022/11/02 09:03:48;;;;;;;17.10;13.70;;;;;;;14.12;100.00;99448.89;106226;1288;58918;-74
2022/11/02 09:06:15;;;;;;;16.70;12.60;;;;;;;14.19;100.00;99447.98;106516;1282;58859;-74
2022/11/02 09:08:42;;;;;;;13.10;11.80;;;;;;;14.28;100.00;99445.31;106506;1270;65848;-74
2022/11/02 09:11:10;;;;;;;14.00;11.50;;;;;;;14.34;100.00;99441.15;106519;1285;60780;-74
2022/11/02 09:13:37;;;;;;;14.70;11.30;;;;;;;14.38;100.00;99440.83;106496;1286;64797;-74
2022/11/02 09:16:04;;;;;;;14.50;12.10;;;;;;;14.44;100.00;99438.27;106497;1285;58786;-74
2022/11/02 09:18:31;;;;;;;15.90;12.20;;;;;;;14.49;100.00;99437.48;106524;1286;59100;-74
2022/11/02 09:21:04;;;;;;;14.50;11.40;;;;;;;14.54;100.00;99434.98;106536;1278;65937;-75
2022/11/02 09:23:32;;;;;;;15.00;11.10;;;;;;;14.58;100.00;99436.10;106522;1286;61032;-73
2022/11/02 09:25:59;;;;;;;14.00;12.10;;;;;;;14.60;100.00;99434.23;106494;1286;63702;-74
2022/11/02 09:28:26;;;;;;;13.10;10.80;;;;;;;14.59;100.00;99436.56;106104;1288;59105;-75
2022/11/02 09:30:52;;;;;;;14.60;12.00;;;;;;;14.62;100.00;99436.52;106519;1286;58843;-74
2022/11/02 09:33:19;;;;;;;14.50;12.30;;;;;;;14.69;100.00;99441.55;106149;1284;64442;-76
2022/11/02 09:35:47;;;;;;;16.20;11.90;;;;;;;14.74;100.00;99441.90;106509;1285;60709;-74
2022/11/02 09:38:17;;;;;;;13.80;11.00;;;;;;;14.78;100.00;99441.24;106488;1286;64888;-74
2022/11/02 09:41:12;;;;;;;13.20;11.40;;;;;;;14.80;100.00;99440.16;106516;1281;58793;-75
2022/11/02 09:43:43;;;;;;;13.30;10.80;;;;;;;14.82;100.00;99436.05;106106;1281;59008;-75
2022/11/02 09:46:17;;;;;;;13.50;10.90;;;;;;;14.85;100.00;99438.14;106523;1285;66897;-75
2022/11/02 09:48:57;;;;;;;15.30;11.00;;;;;;;14.91;100.00;99435.19;106491;1284;59837;-74
2022/11/02 09:51:33;;;;;;;12.80;9.60;;;;;;;15.00;100.00;99431.59;106505;1282;64836;-73
2022/11/02 09:54:18;;;;;;;14.20;11.40;;;;;;;15.12;100.00;99427.66;106514;1282;58884;-74
2022/11/02 09:56:46;;;;;;;14.80;10.70;;;;;;;15.21;100.00;99432.16;106524;1278;58974;-72
2022/11/02 09:59:20;;;;;;;13.80;10.10;;;;;;;15.27;100.00;99428.39;106121;1292;66818;-73
2022/11/02 10:02:07;;;;;;;12.70;9.00;;;;;;;15.32;100.00;99425.17;106482;1285;67762;-73
2022/11/02 10:05:11;;;;;;;14.40;9.40;;;;;;;15.36;100.00;99426.79;105677;1300;65141;-73
2022/11/02 10:07:50;;;;;;;9.90;8.50;;;;;;;15.43;100.00;99419.24;105808;1291;58796;-74
2022/11/02 10:10:25;;;;;;;11.30;8.50;;;;;;;15.52;100.00;99420.30;105814;1292;58837;-73
2022/11/02 10:13:05;;;;;;;11.30;7.60;;;;;;;15.68;100.00;99424.45;105807;1292;66803;-71
2022/11/02 10:15:39;;;;;;;17.90;8.50;;;;;;;15.82;100.00;99424.23;105854;1284;59789;-79
2022/11/02 10:18:34;;;;;;;9.00;7.80;;;;;;;15.93;100.00;99425.23;105864;1284;64795;-83
2022/11/02 10:21:18;;;;;;;9.80;8.40;;;;;;;16.05;100.00;99428.63;105610;1295;59070;-83
2022/11/02 10:23:51;;;;;;;11.20;8.10;;;;;;;16.10;100.00;99428.17;105609;1295;58917;-81
2022/11/02 10:26:26;;;;;;;10.20;7.90;;;;;;;16.11;100.00;99430.08;105615;1297;66807;-80
2022/11/02 10:29:13;;;;;;;11.50;8.60;;;;;;;16.12;100.00;99427.08;105610;1293;59683;-81
2022/11/02 10:31:39;;;;;;;11.40;7.60;;;;;;;16.17;100.00;99429.53;105575;1295;64204;-83
2022/11/02 10:34:14;;;;;;;11.50;8.20;;;;;;;16.18;100.00;99425.53;105326;1306;59066;-81
2022/11/02 10:36:50;;;;;;;11.80;8.70;;;;;;;16.25;100.00;99423.34;105563;1295;59159;-80
2022/11/02 10:39:43;;;;;;;12.60;9.40;;;;;;;16.34;100.00;99421.29;105693;1287;65789;-81
2022/11/02 10:42:33;;;;;;;9.10;8.20;;;;;;;16.42;100.00;99423.14;105959;1281;59825;-79
2022/11/02 10:45:18;;;;;;;12.10;9.10;;;;;;;16.51;100.00;99425.67;105751;1290;63268;-80
2022/11/02 10:48:00;;;;;;;11.20;9.10;;;;;;;16.55;100.00;99423.19;105649;1297;59040;-78
2022/11/02 10:50:34;;;;;;;11.00;8.60;;;;;;;16.60;100.00;99417.34;105665;1293;58969;-78
2022/11/02 10:53:02;;;;;;;14.10;10.90;;;;;;;16.65;100.00;99416.58;105597;1289;66848;-79
2022/11/02 10:55:38;;;;;;;10.00;8.60;;;;;;;16.68;100.00;99415.92;105584;1297;60952;-80
2022/11/02 10:58:05;;;;;;;16.00;12.30;;;;;;;16.70;100.00;99413.43;105629;1280;63723;-77
2022/11/02 11:00:35;;;;;;;14.70;11.00;;;;;;;16.71;100.00;99411.17;105597;1296;58953;-78
2022/11/02 11:03:01;;;;;;;13.30;10.50;;;;;;;16.72;100.00;99410.41;105859;1286;58766;-79
2022/11/02 11:05:28;;;;;;;13.50;10.20;;;;;;;16.76;100.00;99407.94;105634;1294;66849;-78
2022/11/02 11:07:56;;;;;;;15.60;11.10;;;;;;;16.77;100.00;99407.27;105651;1290;60260;-78
2022/11/02 11:10:23;;;;;;;15.00;10.60;;;;;;;16.76;100.00;99407.73;105787;1293;65413;-80
2022/11/02 11:12:52;;;;;;;12.30;10.90;;;;;;;16.74;100.00;99408.22;105683;1295;59063;-80
2022/11/02 11:15:26;;;;;;;15.50;11.40;;;;;;;16.77;100.00;99409.77;105708;1286;59312;-78
2022/11/02 11:17:55;;;;;;;13.80;12.40;;;;;;;16.80;100.00;99411.19;105714;1287;65715;-79
2022/11/02 11:20:36;;;;;;;15.30;12.20;;;;;;;16.81;100.00;99407.91;105592;1289;59430;-79
2022/11/02 11:23:23;;;;;;;16.90;11.70;;;;;;;16.79;100.00;99406.80;106144;1278;64346;-79
2022/11/02 11:26:02;;;;;;;17.00;12.30;;;;;;;16.78;100.00;99407.27;106314;1277;58869;-79
2022/11/02 11:28:52;;;;;;;26.10;14.20;;;;;;;16.79;100.00;99406.95;106371;1285;59002;-80
2022/11/02 11:31:19;;;;;;;16.00;12.10;;;;;;;16.81;100.00;99404.14;106617;1285;65827;-82
2022/11/02 11:33:52;;;;;;;15.70;11.90;;;;;;;16.83;100.00;99400.52;106565;1278;58979;-81